aviador You're here:

LFBU Decoded Metar

ANGOULEME in FRANCE
Report Time2017-12-18 08:30:00
UTC Time2017-12-18 08:58:34
Flight Rules lifr LIFR
Wind260° at 10 kt
W.Decomp.*RWY 28: 9.5 kt HW 3.3 kt LCW
W.Rank260° ranks 12
Current wind is above 260° avg. (7.5)
Visibility3000 m
Phenomena:Light Drizzle
Mist
Clouds:Overcast 002 Hf
Expected CloudBase > 400 ft AGL from Temp-Dew spread
Ceiling200 ft
Temp09°C (ISA -5)
Dew Point08°C (94% RH)
AAT5.0°C
QNH1026 hPa
Density Alt-472 ft
Elevation436 ft
Report Wrong Elevation
Raw Report
METAR LFBU 180830Z AUTO 26010KT 3000 -DZ BR OVC002 09/08 Q1026
NOSIG=

Extra information for LFBU:More info

Metar Taf Metar & Taf Last 4 Metars F.Rules Stats Wind Profile Meteogram Temp Stats Airport Information Weather charts Add Link Nearby VenuesMetar ALERT Operation Metar Decoded Social comments